createdAt,value
2018-02-01T00:01:07.839Z,67.60
2018-02-01T00:03:35.370Z,67.34
2018-02-01T00:06:02.902Z,67.82
2018-02-01T00:08:30.442Z,68.12
2018-02-01T00:10:57.973Z,67.81
2018-02-01T00:13:25.518Z,66.95
2018-02-01T00:15:53.087Z,66.34
2018-02-01T00:18:20.670Z,66.80
2018-02-01T00:20:48.238Z,68.02
2018-02-01T00:23:15.837Z,68.21
2018-02-01T00:25:43.400Z,68.85
2018-02-01T00:28:10.927Z,69.30
2018-02-01T00:30:38.472Z,69.20
2018-02-01T00:33:06.166Z,68.87
2018-02-01T00:35:33.801Z,68.73
2018-02-01T00:38:01.408Z,68.68
2018-02-01T00:40:29.023Z,68.47
2018-02-01T00:42:56.564Z,68.12
2018-02-01T00:45:24.102Z,66.18
2018-02-01T00:47:51.640Z,67.35
2018-02-01T00:50:19.172Z,67.24
2018-02-01T00:52:46.754Z,67.33
2018-02-01T00:55:14.287Z,66.42
2018-02-01T00:57:41.878Z,66.92
2018-02-01T01:00:09.421Z,67.49
2018-02-01T01:02:37.198Z,68.06
2018-02-01T01:05:04.758Z,67.32
2018-02-01T01:07:32.443Z,67.39
2018-02-01T01:10:00.153Z,67.78
2018-02-01T01:12:27.718Z,65.76
2018-02-01T01:14:55.489Z,66.37
2018-02-01T01:17:23.027Z,66.05
2018-02-01T01:19:50.558Z,68.06
2018-02-01T01:22:18.095Z,68.49
2018-02-01T01:24:45.673Z,69.03
2018-02-01T01:27:13.262Z,69.82
2018-02-01T01:29:40.898Z,70.00
2018-02-01T01:32:08.518Z,70.25
2018-02-01T01:34:36.073Z,69.79
2018-02-01T01:37:03.602Z,68.71
2018-02-01T01:39:31.134Z,68.15
2018-02-01T01:41:58.661Z,68.23
2018-02-01T01:44:26.406Z,68.28
2018-02-01T01:46:53.934Z,67.74
2018-02-01T01:49:21.465Z,67.35
2018-02-01T01:51:49.255Z,68.11
2018-02-01T01:54:16.786Z,70.25
2018-02-01T01:56:44.491Z,69.92
2018-02-01T01:59:12.017Z,69.68
2018-02-01T02:01:39.616Z,69.55
2018-02-01T02:04:07.303Z,68.41
2018-02-01T02:06:36.868Z,68.69
2018-02-01T02:09:04.490Z,69.26
2018-02-01T02:11:32.018Z,69.90
2018-02-01T02:13:59.558Z,70.11
2018-02-01T02:16:27.086Z,69.79
2018-02-01T02:18:54.758Z,69.52
2018-02-01T02:21:22.310Z,70.29
2018-02-01T02:23:49.842Z,66.71
2018-02-01T02:26:17.406Z,66.26
2018-02-01T02:28:44.954Z,67.92
2018-02-01T02:31:12.647Z,69.34
2018-02-01T02:33:40.279Z,69.76
2018-02-01T02:36:07.887Z,69.24
2018-02-01T02:38:35.418Z,68.99
2018-02-01T02:41:02.970Z,69.41
2018-02-01T02:43:30.638Z,70.04
2018-02-01T02:45:58.357Z,71.57
2018-02-01T02:48:25.897Z,71.66
2018-02-01T02:50:53.426Z,73.07
2018-02-01T02:53:21.010Z,74.15
2018-02-01T02:55:48.565Z,73.65
2018-02-01T02:58:16.094Z,70.72
2018-02-01T03:00:43.642Z,71.18
2018-02-01T03:03:11.170Z,72.00
2018-02-01T03:05:38.762Z,73.02
2018-02-01T03:08:06.330Z,74.36
2018-02-01T03:10:34.031Z,72.89
2018-02-01T03:13:01.562Z,74.42
2018-02-01T03:15:29.099Z,71.16
2018-02-01T03:17:56.883Z,71.09
2018-02-01T03:20:24.406Z,69.65
2018-02-01T03:22:51.990Z,69.15
2018-02-01T03:25:19.514Z,71.05
2018-02-01T03:27:47.097Z,70.65
2018-02-01T03:30:14.640Z,71.69
2018-02-01T03:32:42.179Z,72.93
2018-02-01T03:35:09.907Z,73.02
2018-02-01T03:37:37.433Z,72.96
2018-02-01T03:40:05.010Z,72.97
2018-02-01T03:42:32.541Z,73.11
2018-02-01T03:45:00.070Z,72.13
2018-02-01T03:47:27.672Z,72.19
2018-02-01T03:49:55.203Z,71.79
2018-02-01T03:52:22.738Z,72.44
2018-02-01T03:54:50.461Z,72.30
2018-02-01T03:57:18.237Z,73.00
2018-02-01T03:59:45.776Z,72.94
2018-02-01T04:02:13.303Z,73.61
2018-02-01T04:04:41.089Z,73.27
2018-02-01T04:07:08.613Z,74.17
2018-02-01T04:09:36.156Z,74.36
2018-02-01T04:12:03.850Z,75.39
2018-02-01T04:14:31.432Z,75.46
2018-02-01T04:16:58.967Z,75.69
2018-02-01T04:19:26.598Z,74.42
2018-02-01T04:21:54.133Z,74.65
2018-02-01T04:24:21.658Z,75.32
2018-02-01T04:26:49.194Z,74.60
2018-02-01T04:29:16.721Z,74.77
2018-02-01T04:31:44.258Z,75.00
2018-02-01T04:34:11.795Z,74.98
2018-02-01T04:36:39.377Z,74.75
2018-02-01T04:39:06.902Z,73.90
2018-02-01T04:41:34.430Z,73.69
2018-02-01T04:44:02.067Z,73.04
2018-02-01T04:46:29.594Z,72.99
2018-02-01T04:48:57.129Z,73.68
2018-02-01T04:51:24.658Z,73.37
2018-02-01T04:53:52.246Z,73.30
2018-02-01T04:56:19.773Z,72.71
2018-02-01T04:58:47.362Z,73.63
2018-02-01T05:01:14.907Z,73.88
2018-02-01T05:03:42.437Z,73.56
2018-02-01T05:06:09.983Z,73.34
2018-02-01T05:08:37.658Z,73.69
2018-02-01T05:11:05.392Z,73.67
2018-02-01T05:13:32.926Z,74.18
2018-02-01T05:16:00.454Z,73.94
2018-02-01T05:18:27.994Z,74.36
2018-02-01T05:20:55.522Z,75.08
2018-02-01T05:23:23.160Z,74.27
2018-02-01T05:25:50.883Z,74.06
2018-02-01T05:28:18.461Z,74.53
2018-02-01T05:30:45.985Z,74.75
2018-02-01T05:33:13.562Z,74.41
2018-02-01T05:35:41.397Z,74.87
2018-02-01T05:38:08.913Z,74.80
2018-02-01T05:40:36.533Z,75.20
2018-02-01T05:43:04.630Z,74.66
2018-02-01T05:45:32.254Z,74.16
2018-02-01T05:47:59.960Z,74.26
2018-02-01T05:50:27.498Z,74.17
2018-02-01T05:52:55.062Z,74.43
2018-02-01T05:55:22.690Z,73.63
2018-02-01T05:57:50.297Z,73.10
2018-02-01T06:00:18.029Z,72.38
2018-02-01T06:02:45.847Z,73.17
2018-02-01T06:05:13.466Z,73.31
2018-02-01T06:07:41.000Z,72.96
2018-02-01T06:10:08.554Z,73.40
2018-02-01T06:12:36.082Z,73.27
2018-02-01T06:15:03.658Z,73.28
2018-02-01T06:17:31.245Z,73.32
2018-02-01T06:19:58.846Z,72.07
2018-02-01T06:22:26.395Z,71.60
2018-02-01T06:24:53.931Z,71.08
2018-02-01T06:27:21.536Z,70.78
2018-02-01T06:29:49.074Z,70.19
2018-02-01T06:32:16.618Z,70.33
2018-02-01T06:34:44.274Z,69.82
2018-02-01T06:37:12.048Z,69.86
2018-02-01T06:39:39.579Z,69.52
2018-02-01T06:42:07.198Z,69.66
2018-02-01T06:44:34.736Z,69.52
2018-02-01T06:47:02.341Z,69.18
2018-02-01T06:49:30.027Z,68.66
2018-02-01T06:51:57.609Z,67.89
2018-02-01T06:54:25.420Z,67.57
2018-02-01T06:56:52.970Z,67.74
2018-02-01T06:59:20.753Z,67.60
2018-02-01T07:01:51.677Z,67.28
2018-02-01T07:04:19.408Z,66.82
2018-02-01T07:06:46.961Z,66.39
2018-02-01T07:09:14.498Z,66.05
2018-02-01T07:11:42.140Z,62.21
2018-02-01T07:14:09.689Z,57.18
2018-02-01T07:16:37.321Z,54.50
2018-02-01T07:19:05.002Z,54.16
2018-02-01T07:21:32.828Z,53.16
2018-02-01T07:24:00.463Z,49.34
2018-02-01T07:26:28.167Z,45.22
2018-02-01T07:28:55.727Z,41.57
2018-02-01T07:31:23.498Z,40.36
2018-02-01T07:33:51.038Z,38.57
2018-02-01T07:36:18.646Z,37.02
2018-02-01T07:38:46.356Z,35.39
2018-02-01T07:41:13.961Z,34.15
2018-02-01T07:43:41.789Z,32.87
2018-02-01T07:46:10.201Z,32.16
2018-02-01T07:48:37.750Z,31.37
2018-02-01T07:51:05.346Z,30.06
2018-02-01T07:53:32.962Z,29.27
2018-02-01T07:56:00.522Z,29.16
2018-02-01T07:58:28.124Z,28.94
2018-02-01T08:00:55.706Z,28.19
2018-02-01T08:03:23.259Z,27.21
2018-02-01T08:05:50.841Z,27.45
2018-02-01T08:08:18.468Z,27.20
2018-02-01T08:10:46.146Z,27.20
2018-02-01T08:13:14.005Z,27.12
2018-02-01T08:15:41.607Z,27.70
2018-02-01T08:18:09.240Z,27.70
2018-02-01T08:20:36.976Z,27.75
2018-02-01T08:23:04.642Z,28.03
2018-02-01T08:25:32.178Z,27.94
2018-02-01T08:27:59.814Z,27.12
2018-02-01T08:30:27.362Z,27.62
2018-02-01T08:32:54.906Z,27.12
2018-02-01T08:35:22.666Z,27.13
2018-02-01T08:37:50.208Z,26.51
2018-02-01T08:40:17.846Z,25.80
2018-02-01T08:42:45.382Z,26.44
2018-02-01T08:45:13.042Z,27.31
2018-02-01T08:47:40.645Z,26.51
2018-02-01T08:50:08.734Z,27.35
2018-02-01T08:52:36.391Z,27.96
2018-02-01T08:55:03.982Z,27.43
2018-02-01T08:57:31.571Z,26.49
2018-02-01T08:59:59.123Z,26.05
2018-02-01T09:02:26.686Z,26.08
2018-02-01T09:04:54.290Z,26.10
2018-02-01T09:07:21.999Z,25.60
2018-02-01T09:09:49.603Z,25.74
2018-02-01T09:12:17.146Z,25.19
2018-02-01T09:14:44.741Z,24.87
2018-02-01T09:17:12.471Z,25.46
2018-02-01T09:19:40.007Z,26.59
2018-02-01T09:22:07.597Z,28.34
2018-02-01T09:24:35.146Z,29.47
2018-02-01T09:27:02.826Z,28.47
2018-02-01T09:29:30.467Z,28.77
2018-02-01T09:31:58.378Z,27.97
2018-02-01T09:34:26.006Z,26.78
2018-02-01T09:36:53.554Z,26.73
2018-02-01T09:39:21.102Z,25.62
2018-02-01T09:41:48.687Z,25.35
2018-02-01T09:44:16.238Z,25.57
2018-02-01T09:46:43.860Z,26.28
2018-02-01T09:49:11.607Z,26.16
2018-02-01T09:51:39.226Z,25.13
2018-02-01T09:54:06.822Z,24.08
2018-02-01T09:56:34.366Z,25.65
2018-02-01T09:59:01.974Z,25.77
2018-02-01T10:01:29.603Z,26.20
2018-02-01T10:03:57.136Z,26.60
2018-02-01T10:06:24.665Z,27.53
2018-02-01T10:08:52.205Z,27.59
2018-02-01T10:11:19.966Z,27.44
2018-02-01T10:13:47.682Z,27.53
2018-02-01T10:16:15.308Z,28.59
2018-02-01T10:18:42.871Z,28.97
2018-02-01T10:21:10.453Z,28.06
2018-02-01T10:23:38.048Z,26.86
2018-02-01T10:26:05.873Z,26.36
2018-02-01T10:28:33.410Z,26.09
2018-02-01T10:31:01.307Z,27.17
2018-02-01T10:33:28.854Z,28.29
2018-02-01T10:35:56.465Z,28.17
2018-02-01T10:38:24.162Z,29.16
2018-02-01T10:40:51.858Z,27.48
2018-02-01T10:43:19.414Z,27.41
2018-02-01T10:45:46.967Z,27.61
2018-02-01T10:48:14.562Z,27.46
2018-02-01T10:50:42.359Z,27.16
2018-02-01T10:53:10.048Z,26.20
2018-02-01T10:55:37.582Z,27.11
2018-02-01T10:58:05.137Z,27.83
2018-02-01T11:00:32.922Z,27.43
2018-02-01T11:03:00.514Z,26.83
2018-02-01T11:05:28.050Z,26.70
2018-02-01T11:07:55.685Z,27.04
2018-02-01T11:10:23.489Z,26.68
2018-02-01T11:12:51.044Z,26.70
2018-02-01T11:15:18.635Z,26.74
2018-02-01T11:17:46.182Z,27.32
2018-02-01T11:20:13.717Z,27.05
2018-02-01T11:22:41.253Z,26.37
2018-02-01T11:25:09.002Z,25.67
2018-02-01T11:27:36.782Z,24.65
2018-02-01T11:30:04.439Z,25.29
2018-02-01T11:32:32.147Z,24.93
2018-02-01T11:34:59.791Z,24.18
2018-02-01T11:37:27.334Z,24.11
2018-02-01T11:39:55.010Z,23.76
2018-02-01T11:42:22.727Z,23.60
2018-02-01T11:44:50.481Z,23.64
2018-02-01T11:47:18.264Z,23.25
2018-02-01T11:49:45.982Z,23.48
2018-02-01T11:52:13.751Z,24.19
2018-02-01T11:54:41.293Z,22.93
2018-02-01T11:57:08.823Z,23.31
2018-02-01T11:59:36.374Z,23.33
2018-02-01T12:02:04.004Z,22.62
2018-02-01T12:04:31.819Z,22.21
2018-02-01T12:06:59.347Z,22.21
2018-02-01T12:09:26.878Z,23.06
2018-02-01T12:11:54.482Z,23.08
2018-02-01T12:14:22.108Z,23.47
2018-02-01T12:16:49.702Z,22.80
2018-02-01T12:19:17.233Z,23.16
2018-02-01T12:21:44.762Z,22.69
2018-02-01T12:24:12.299Z,22.62
2018-02-01T12:26:39.853Z,22.96
2018-02-01T12:29:07.675Z,22.70
2018-02-01T12:31:35.370Z,23.14
2018-02-01T12:34:03.042Z,22.75
2018-02-01T12:36:30.605Z,22.78
2018-02-01T12:38:58.147Z,22.45
2018-02-01T12:41:25.818Z,22.83
2018-02-01T12:43:53.415Z,23.19
2018-02-01T12:46:20.959Z,22.08
2018-02-01T12:48:48.507Z,22.01
2018-02-01T12:51:16.389Z,21.59
2018-02-01T12:53:44.011Z,21.99
2018-02-01T12:56:11.553Z,21.61
2018-02-01T12:58:39.141Z,21.25
2018-02-01T13:01:06.682Z,20.73
2018-02-01T13:03:34.223Z,20.23
2018-02-01T13:06:01.795Z,20.19
2018-02-01T13:08:29.356Z,19.86
2018-02-01T13:10:57.202Z,19.42
2018-02-01T13:13:25.736Z,20.24
2018-02-01T13:15:53.446Z,20.92
2018-02-01T13:18:21.259Z,20.67
2018-02-01T13:20:49.207Z,21.25
2018-02-01T13:23:16.906Z,20.71
2018-02-01T13:25:46.274Z,20.64
2018-02-01T13:28:13.809Z,20.69
2018-02-01T13:30:41.370Z,21.55
2018-02-01T13:33:08.905Z,22.69
2018-02-01T13:35:36.450Z,23.65
2018-02-01T13:38:04.034Z,24.57
2018-02-01T13:40:31.732Z,25.13
2018-02-01T13:42:59.279Z,23.81
2018-02-01T13:45:26.813Z,23.33
2018-02-01T13:47:54.418Z,23.00
2018-02-01T13:50:21.950Z,22.88
2018-02-01T13:52:49.623Z,22.83
2018-02-01T13:55:17.210Z,21.91
2018-02-01T13:57:44.806Z,21.47
2018-02-01T14:00:12.365Z,22.04
2018-02-01T14:02:39.901Z,21.45
2018-02-01T14:05:07.454Z,21.21
2018-02-01T14:07:35.055Z,21.32
2018-02-01T14:10:02.617Z,21.45
2018-02-01T14:12:30.263Z,21.75
2018-02-01T14:14:57.814Z,21.88
2018-02-01T14:17:25.364Z,21.83
2018-02-01T14:19:52.901Z,22.32
2018-02-01T14:22:20.486Z,22.15
2018-02-01T14:24:48.022Z,22.19
2018-02-01T14:27:15.622Z,22.88
2018-02-01T14:29:43.226Z,23.31
2018-02-01T14:32:10.762Z,23.62
2018-02-01T14:34:38.516Z,24.60
2018-02-01T14:37:06.054Z,25.20
2018-02-01T14:39:33.752Z,25.65
2018-02-01T14:42:01.369Z,25.47
2018-02-01T14:44:28.914Z,25.35
2018-02-01T14:46:56.706Z,26.09
2018-02-01T14:49:24.298Z,26.95
2018-02-01T14:51:52.006Z,27.35
2018-02-01T14:54:19.662Z,29.24
2018-02-01T14:56:47.199Z,30.04
2018-02-01T14:59:14.750Z,31.22
2018-02-01T15:01:42.296Z,31.29
2018-02-01T15:04:10.031Z,31.19
2018-02-01T15:06:37.569Z,32.02
2018-02-01T15:09:05.238Z,33.75
2018-02-01T15:11:32.891Z,34.11
2018-02-01T15:14:00.513Z,35.08
2018-02-01T15:16:28.122Z,36.28
2018-02-01T15:18:55.742Z,36.76
2018-02-01T15:21:23.325Z,37.39
2018-02-01T15:23:50.864Z,38.29
2018-02-01T15:26:18.418Z,39.26
2018-02-01T15:28:45.975Z,40.10
2018-02-01T15:31:13.697Z,40.06
2018-02-01T15:33:41.415Z,41.68
2018-02-01T15:36:09.129Z,43.09
2018-02-01T15:38:36.784Z,44.38
2018-02-01T15:41:04.445Z,45.29
2018-02-01T15:43:31.989Z,46.04
2018-02-01T15:45:59.625Z,44.80
2018-02-01T15:48:27.174Z,44.89
2018-02-01T15:50:54.761Z,45.98
2018-02-01T15:53:22.397Z,46.02
2018-02-01T15:55:50.207Z,46.55
2018-02-01T15:58:17.753Z,47.37
2018-02-01T16:00:45.294Z,48.38
2018-02-01T16:03:12.846Z,48.70
2018-02-01T16:05:40.406Z,47.80
2018-02-01T16:08:08.285Z,49.34
2018-02-01T16:10:36.023Z,49.31
2018-02-01T16:13:03.645Z,50.40
2018-02-01T16:15:31.186Z,50.89
2018-02-01T16:17:58.725Z,50.77
2018-02-01T16:20:26.349Z,50.44
2018-02-01T16:22:54.012Z,50.20
2018-02-01T16:25:21.730Z,51.39
2018-02-01T16:27:49.542Z,51.12
2018-02-01T16:30:17.144Z,51.18
2018-02-01T16:32:44.704Z,51.86
2018-02-01T16:35:12.242Z,51.85
2018-02-01T16:37:39.801Z,52.19
2018-02-01T16:40:07.530Z,53.74
2018-02-01T16:42:35.250Z,52.99
2018-02-01T16:45:03.069Z,53.22
2018-02-01T16:47:30.661Z,52.12
2018-02-01T16:49:58.404Z,52.41
2018-02-01T16:52:26.118Z,51.84
2018-02-01T16:54:53.866Z,52.11
2018-02-01T16:57:21.425Z,52.13
2018-02-01T16:59:49.240Z,52.43
2018-02-01T17:02:16.861Z,53.09
2018-02-01T17:04:44.480Z,53.12
2018-02-01T17:07:12.363Z,53.88
2018-02-01T17:09:39.949Z,53.78
2018-02-01T17:12:07.490Z,53.30
2018-02-01T17:14:35.295Z,54.41
2018-02-01T17:17:02.903Z,53.71
2018-02-01T17:19:30.434Z,53.70
2018-02-01T17:21:58.014Z,54.84
2018-02-01T17:24:25.596Z,54.63
2018-02-01T17:26:53.173Z,54.29
2018-02-01T17:29:20.863Z,55.54
2018-02-01T17:31:48.438Z,56.09
2018-02-01T17:34:15.992Z,56.29
2018-02-01T17:36:43.564Z,55.96
2018-02-01T17:39:11.210Z,56.60
2018-02-01T17:41:38.749Z,57.43
2018-02-01T17:44:06.507Z,56.92
2018-02-01T17:46:34.066Z,57.30
2018-02-01T17:49:01.744Z,57.86
2018-02-01T17:51:29.325Z,57.39
2018-02-01T17:53:56.979Z,56.95
2018-02-01T17:56:24.797Z,57.16
2018-02-01T17:58:52.337Z,57.93
2018-02-01T18:01:19.925Z,58.62
2018-02-01T18:03:47.555Z,58.88
2018-02-01T18:06:15.093Z,59.00
2018-02-01T18:08:42.646Z,58.91
2018-02-01T18:11:10.191Z,59.31
2018-02-01T18:13:37.802Z,59.42
2018-02-01T18:16:05.346Z,59.32
2018-02-01T18:18:33.068Z,57.72
2018-02-01T18:21:00.875Z,58.79
2018-02-01T18:23:28.447Z,57.75
2018-02-01T18:25:56.027Z,59.29
2018-02-01T18:28:23.566Z,59.83
2018-02-01T18:30:51.115Z,59.98
2018-02-01T18:33:18.864Z,60.50
2018-02-01T18:35:46.491Z,61.03
2018-02-01T18:38:14.091Z,61.04
2018-02-01T18:40:41.630Z,60.90
2018-02-01T18:43:09.162Z,61.68
2018-02-01T18:45:36.799Z,62.26
2018-02-01T18:48:04.474Z,62.42
2018-02-01T18:50:32.022Z,62.32
2018-02-01T18:52:59.597Z,62.81
2018-02-01T18:55:27.227Z,63.20
2018-02-01T18:57:54.762Z,62.49
2018-02-01T19:00:22.450Z,61.95
2018-02-01T19:02:50.085Z,61.72
2018-02-01T19:05:17.796Z,61.17
2018-02-01T19:07:45.405Z,61.96
2018-02-01T19:10:13.046Z,62.37
2018-02-01T19:12:40.610Z,62.75
2018-02-01T19:15:08.149Z,63.73
2018-02-01T19:17:35.990Z,64.40
2018-02-01T19:20:03.586Z,64.41
2018-02-01T19:22:31.130Z,63.02
2018-02-01T19:24:58.681Z,63.43
2018-02-01T19:27:26.358Z,63.40
2018-02-01T19:29:54.175Z,62.82
2018-02-01T19:32:21.719Z,63.79
2018-02-01T19:34:49.383Z,64.62
2018-02-01T19:37:16.926Z,64.23
2018-02-01T19:39:44.461Z,63.54
2018-02-01T19:42:12.011Z,63.14
2018-02-01T19:44:39.782Z,64.55
2018-02-01T19:47:07.387Z,64.71
2018-02-01T19:49:34.937Z,64.62
2018-02-01T19:52:02.644Z,64.41
2018-02-01T19:54:30.362Z,65.11
2018-02-01T19:56:57.906Z,64.66
2018-02-01T19:59:25.458Z,64.06
2018-02-01T20:01:52.998Z,64.41
2018-02-01T20:04:20.747Z,65.67
2018-02-01T20:06:48.290Z,66.32
2018-02-01T20:09:15.850Z,66.12
2018-02-01T20:11:43.394Z,64.66
2018-02-01T20:14:10.922Z,64.07
2018-02-01T20:16:38.614Z,64.06
2018-02-01T20:19:06.156Z,63.99
2018-02-01T20:21:33.906Z,65.58
2018-02-01T20:24:01.452Z,65.63
2018-02-01T20:26:29.086Z,66.42
2018-02-01T20:28:56.638Z,66.75
2018-02-01T20:31:24.174Z,66.65
2018-02-01T20:33:51.754Z,67.69
2018-02-01T20:36:19.316Z,67.34
2018-02-01T20:38:46.902Z,67.41
2018-02-01T20:41:14.622Z,68.45
2018-02-01T20:43:42.178Z,68.85
2018-02-01T20:46:09.720Z,67.92
2018-02-01T20:48:37.263Z,66.91
2018-02-01T20:51:05.063Z,68.56
2018-02-01T20:53:32.631Z,68.84
2018-02-01T20:56:00.315Z,69.08
2018-02-01T20:58:27.858Z,70.25
2018-02-01T21:00:55.469Z,71.27
2018-02-01T21:03:23.044Z,70.83
2018-02-01T21:05:50.661Z,71.29
2018-02-01T21:08:18.269Z,70.64
2018-02-01T21:10:45.807Z,70.15
2018-02-01T21:13:13.526Z,68.48
2018-02-01T21:15:41.062Z,67.41
2018-02-01T21:18:08.611Z,65.50
2018-02-01T21:20:36.167Z,64.69
2018-02-01T21:23:03.895Z,64.89
2018-02-01T21:25:31.437Z,65.06
2018-02-01T21:27:58.978Z,66.82
2018-02-01T21:30:26.849Z,67.38
2018-02-01T21:32:54.391Z,68.92
2018-02-01T21:35:21.934Z,68.37
2018-02-01T21:37:49.703Z,70.01
2018-02-01T21:40:17.270Z,71.19
2018-02-01T21:42:44.813Z,70.98
2018-02-01T21:45:12.467Z,71.84
2018-02-01T21:47:40.016Z,71.96
2018-02-01T21:50:07.582Z,71.98
2018-02-01T21:52:35.178Z,71.63
2018-02-01T21:55:03.034Z,71.94
2018-02-01T21:57:30.578Z,71.56
2018-02-01T21:59:58.333Z,68.51
2018-02-01T22:02:26.986Z,68.20
2018-02-01T22:04:54.554Z,67.81
2018-02-01T22:07:22.090Z,69.91
2018-02-01T22:09:49.805Z,70.29
2018-02-01T22:12:17.459Z,72.13
2018-02-01T22:14:45.022Z,71.93
2018-02-01T22:17:12.575Z,71.66
2018-02-01T22:19:40.310Z,71.76
2018-02-01T22:22:07.853Z,71.97
2018-02-01T22:24:35.393Z,70.22
2018-02-01T22:27:03.165Z,66.12
2018-02-01T22:29:30.709Z,66.40
2018-02-01T22:31:58.294Z,69.90
2018-02-01T22:34:26.017Z,72.35
2018-02-01T22:36:53.735Z,69.75
2018-02-01T22:39:21.286Z,67.55
2018-02-01T22:41:48.818Z,66.32
2018-02-01T22:44:16.362Z,66.92
2018-02-01T22:46:44.010Z,67.78
2018-02-01T22:49:11.630Z,68.57
2018-02-01T22:51:39.243Z,69.00
2018-02-01T22:54:06.995Z,69.72
2018-02-01T22:56:34.546Z,69.83
2018-02-01T22:59:02.089Z,70.15
2018-02-01T23:01:29.746Z,71.41
2018-02-01T23:03:57.434Z,71.57
2018-02-01T23:06:25.050Z,72.30
2018-02-01T23:08:52.594Z,73.03
2018-02-01T23:11:20.210Z,72.62
2018-02-01T23:13:47.910Z,72.29
2018-02-01T23:16:15.457Z,73.13
2018-02-01T23:18:42.996Z,72.25
2018-02-01T23:21:10.526Z,69.99
2018-02-01T23:23:38.065Z,70.11
2018-02-01T23:26:05.661Z,67.98
2018-02-01T23:28:33.238Z,68.68
2018-02-01T23:31:00.835Z,68.34
2018-02-01T23:33:28.547Z,70.89
2018-02-01T23:35:56.268Z,72.71
2018-02-01T23:38:23.814Z,74.09
2018-02-01T23:40:51.358Z,75.04
2018-02-01T23:43:18.925Z,75.27
2018-02-01T23:45:46.487Z,75.26
2018-02-01T23:48:14.014Z,74.32
2018-02-01T23:50:41.602Z,73.64
2018-02-01T23:53:09.210Z,73.10
2018-02-01T23:55:36.746Z,72.46
2018-02-01T23:58:04.333Z,71.65
